createdAt,value
2018-03-15T00:02:11.788Z,96878.50
2018-03-15T00:04:42.004Z,96871.00
2018-03-15T00:07:10.950Z,96872.93
2018-03-15T00:09:42.651Z,96866.92
2018-03-15T00:12:11.489Z,96864.92
2018-03-15T00:14:40.838Z,96851.89
2018-03-15T00:17:10.029Z,96860.10
2018-03-15T00:19:41.056Z,96851.89
2018-03-15T00:22:10.314Z,96852.52
2018-03-15T00:24:40.209Z,96843.30
2018-03-15T00:27:10.310Z,96841.01
2018-03-15T00:29:40.158Z,96837.18
2018-03-15T00:32:10.988Z,96821.80
2018-03-15T00:34:41.403Z,96821.88
2018-03-15T00:37:18.106Z,96819.55
2018-03-15T00:39:46.528Z,96823.84
2018-03-15T00:42:17.457Z,96825.10
2018-03-15T00:47:35.315Z,96815.39
2018-03-15T00:50:04.127Z,96811.75
2018-03-15T00:52:34.337Z,96810.15
2018-03-15T00:55:04.132Z,96806.69
2018-03-15T00:57:37.629Z,96805.59
2018-03-15T01:00:07.855Z,96795.68
2018-03-15T01:02:36.004Z,96789.52
2018-03-15T01:05:04.979Z,96781.70
2018-03-15T01:07:32.886Z,96780.01
2018-03-15T01:10:01.841Z,96776.09
2018-03-15T01:12:37.246Z,96771.11
2018-03-15T01:15:09.307Z,96769.70
2018-03-15T01:17:40.359Z,96761.89
2018-03-15T01:20:10.448Z,96762.28
2018-03-15T01:22:38.753Z,96760.61
2018-03-15T01:25:09.428Z,96750.55
2018-03-15T01:27:39.726Z,96756.39
2018-03-15T01:30:14.038Z,96751.45
2018-03-15T01:32:46.688Z,96747.98
2018-03-15T01:35:17.289Z,96747.47
2018-03-15T01:37:46.747Z,96748.38
2018-03-15T01:40:18.542Z,96747.75
2018-03-15T01:45:55.577Z,96730.75
2018-03-15T01:48:28.180Z,96730.73
2018-03-15T01:50:58.868Z,96731.27
2018-03-15T01:53:27.910Z,96728.94
2018-03-15T01:55:58.483Z,96727.35
2018-03-15T01:58:34.783Z,96720.41
2018-03-15T02:01:03.088Z,96717.25
2018-03-15T02:03:32.014Z,96709.30
2018-03-15T02:06:01.247Z,96698.73
2018-03-15T02:08:29.806Z,96698.67
2018-03-15T02:10:59.038Z,96688.69
2018-03-15T02:13:31.708Z,96689.88
2018-03-15T02:16:04.314Z,96685.20
2018-03-15T02:18:33.962Z,96688.17
2018-03-15T02:21:03.598Z,96679.58
2018-03-15T02:23:31.774Z,96684.30
2018-03-15T02:26:01.933Z,96683.42
2018-03-15T02:28:35.781Z,96678.50
2018-03-15T02:31:04.568Z,96676.34
2018-03-15T02:33:33.001Z,96667.27
2018-03-15T02:36:02.108Z,96662.27
2018-03-15T02:38:32.819Z,96666.84
2018-03-15T02:41:04.156Z,96659.39
2018-03-15T02:43:32.643Z,96664.84
2018-03-15T02:46:09.469Z,96659.52
2018-03-15T02:48:39.541Z,96659.77
2018-03-15T02:51:10.655Z,96666.42
2018-03-15T02:53:42.790Z,96658.92
2018-03-15T02:56:13.500Z,96652.89
2018-03-15T02:58:44.763Z,96644.92
2018-03-15T03:01:12.487Z,96651.98
2018-03-15T03:03:40.647Z,96645.38
2018-03-15T03:06:09.384Z,96651.39
2018-03-15T03:08:39.952Z,96644.58
2018-03-15T03:11:11.519Z,96643.42
2018-03-15T03:13:39.609Z,96647.80
2018-03-15T03:16:07.672Z,96645.56
2018-03-15T03:18:36.873Z,96646.97
2018-03-15T03:21:06.094Z,96643.81
2018-03-15T03:23:34.332Z,96636.67
2018-03-15T03:26:04.889Z,96642.67
2018-03-15T03:28:33.254Z,96646.39
2018-03-15T03:31:01.192Z,96647.59
2018-03-15T03:33:30.531Z,96647.37
2018-03-15T03:36:00.370Z,96641.89
2018-03-15T03:38:30.511Z,96639.34
2018-03-15T03:41:00.436Z,96631.95
2018-03-15T03:43:30.413Z,96646.06
2018-03-15T03:46:01.398Z,96651.88
2018-03-15T03:48:33.669Z,96637.70
2018-03-15T03:51:02.862Z,96637.22
2018-03-15T03:53:33.222Z,96637.16
2018-03-15T03:56:02.301Z,96642.94
2018-03-15T03:58:31.729Z,96644.12
2018-03-15T04:01:06.106Z,96642.05
2018-03-15T04:03:34.562Z,96641.20
2018-03-15T04:06:07.629Z,96643.73
2018-03-15T04:08:40.563Z,96641.13
2018-03-15T04:11:11.025Z,96640.95
2018-03-15T04:13:45.145Z,96642.00
2018-03-15T04:16:19.082Z,96643.95
2018-03-15T04:18:47.302Z,96645.37
2018-03-15T04:21:22.336Z,96652.84
2018-03-15T04:23:51.804Z,96644.74
2018-03-15T04:26:21.619Z,96650.51
2018-03-15T04:28:53.785Z,96651.10
2018-03-15T04:31:23.301Z,96644.64
2018-03-15T04:33:52.475Z,96650.70
2018-03-15T04:36:21.768Z,96650.28
2018-03-15T04:38:53.605Z,96648.35
2018-03-15T04:41:22.280Z,96648.34
2018-03-15T04:43:51.495Z,96646.93
2018-03-15T04:46:22.758Z,96645.22
2018-03-15T04:48:55.029Z,96644.70
2018-03-15T04:51:25.134Z,96646.64
2018-03-15T04:53:53.405Z,96643.43
2018-03-15T04:56:22.530Z,96637.77
2018-03-15T04:58:51.493Z,96637.48
2018-03-15T05:01:25.180Z,96630.20
2018-03-15T05:03:55.554Z,96627.48
2018-03-15T05:06:28.260Z,96616.98
2018-03-15T05:08:56.601Z,96618.07
2018-03-15T05:11:27.654Z,96608.18
2018-03-15T05:13:57.939Z,96605.05
2018-03-15T05:16:26.845Z,96604.75
2018-03-15T05:18:55.578Z,96606.76
2018-03-15T05:21:27.874Z,96607.77
2018-03-15T05:23:58.378Z,96602.83
2018-03-15T05:26:28.948Z,96610.31
2018-03-15T05:29:00.788Z,96609.59
2018-03-15T05:31:32.068Z,96608.25
2018-03-15T05:34:06.107Z,96608.58
2018-03-15T05:36:35.494Z,96605.46
2018-03-15T05:39:07.979Z,96599.39
2018-03-15T05:41:37.606Z,96595.13
2018-03-15T05:44:05.839Z,96598.48
2018-03-15T05:46:36.223Z,96590.92
2018-03-15T05:49:04.924Z,96586.19
2018-03-15T05:51:35.868Z,96593.52
2018-03-15T05:54:07.227Z,96587.97
2018-03-15T05:57:06.179Z,96590.81
2018-03-15T05:59:36.335Z,96586.66
2018-03-15T06:02:04.555Z,96584.86
2018-03-15T06:04:33.429Z,96588.97
2018-03-15T06:07:01.943Z,96587.40
2018-03-15T06:09:31.451Z,96597.14
2018-03-15T06:12:00.377Z,96594.00
2018-03-15T06:14:27.584Z,96595.56
2018-03-15T06:16:55.444Z,96590.52
2018-03-15T06:19:24.183Z,96587.86
2018-03-15T06:21:57.864Z,96586.87
2018-03-15T06:24:28.852Z,96578.69
2018-03-15T06:26:57.261Z,96581.61
2018-03-15T06:29:26.525Z,96585.33
2018-03-15T06:31:57.879Z,96581.42
2018-03-15T06:34:26.411Z,96583.34
2018-03-15T06:36:55.051Z,96586.75
2018-03-15T06:39:25.817Z,96588.61
2018-03-15T06:41:54.905Z,96585.66
2018-03-15T06:44:25.585Z,96583.12
2018-03-15T06:46:54.173Z,96584.62
2018-03-15T06:49:28.578Z,96584.01
2018-03-15T06:52:07.365Z,96578.94
2018-03-15T06:54:49.813Z,96580.28
2018-03-15T06:57:20.654Z,96577.54
2018-03-15T06:59:51.351Z,96570.85
2018-03-15T07:02:22.443Z,96568.31
2018-03-15T07:04:54.684Z,96569.80
2018-03-15T07:07:26.066Z,96569.88
2018-03-15T07:09:55.298Z,96575.29
2018-03-15T07:12:25.261Z,96568.45
2018-03-15T07:14:58.988Z,96572.45
2018-03-15T07:20:34.447Z,96574.32
2018-03-15T07:23:04.517Z,96565.53
2018-03-15T07:25:42.320Z,96568.47
2018-03-15T07:28:12.055Z,96567.06
2018-03-15T07:30:42.443Z,96565.89
2018-03-15T07:33:11.640Z,96573.19
2018-03-15T07:35:40.128Z,96575.30
2018-03-15T07:38:12.434Z,96571.66
2018-03-15T07:40:41.674Z,96571.27
2018-03-15T07:43:14.260Z,96569.55
2018-03-15T07:45:45.801Z,96567.08
2018-03-15T07:48:15.771Z,96564.37
2018-03-15T07:50:45.990Z,96570.70
2018-03-15T07:53:16.405Z,96566.98
2018-03-15T07:55:44.767Z,96552.84
2018-03-15T07:58:16.198Z,96554.55
2018-03-15T08:00:47.731Z,96554.55
2018-03-15T08:03:17.464Z,96551.32
2018-03-15T08:05:46.325Z,96554.35
2018-03-15T08:08:14.365Z,96548.59
2018-03-15T08:10:44.295Z,96550.39
2018-03-15T08:13:12.332Z,96548.30
2018-03-15T08:15:41.297Z,96546.87
2018-03-15T08:18:11.515Z,96545.73
2018-03-15T08:20:41.759Z,96539.55
2018-03-15T08:23:10.902Z,96542.34
2018-03-15T08:25:41.205Z,96539.89
2018-03-15T08:28:13.181Z,96546.64
2018-03-15T08:30:42.143Z,96535.84
2018-03-15T08:33:15.103Z,96531.89
2018-03-15T08:35:43.988Z,96536.28
2018-03-15T08:38:14.460Z,96536.67
2018-03-15T08:40:45.501Z,96538.44
2018-03-15T08:43:19.009Z,96544.82
2018-03-15T08:45:48.556Z,96542.50
2018-03-15T08:48:16.279Z,96540.16
2018-03-15T08:50:47.380Z,96536.80
2018-03-15T08:53:18.013Z,96537.06
2018-03-15T08:55:47.619Z,96537.20
2018-03-15T08:58:16.392Z,96534.28
2018-03-15T09:00:47.563Z,96532.73
2018-03-15T09:03:19.383Z,96536.88
2018-03-15T09:05:49.147Z,96534.36
2018-03-15T09:08:19.556Z,96534.06
2018-03-15T09:10:50.379Z,96532.52
2018-03-15T09:13:21.357Z,96536.05
2018-03-15T09:15:50.894Z,96533.80
2018-03-15T09:18:21.651Z,96538.36
2018-03-15T09:20:51.252Z,96532.88
2018-03-15T09:23:19.523Z,96535.72
2018-03-15T09:25:47.513Z,96532.89
2018-03-15T09:28:16.387Z,96537.40
2018-03-15T09:30:46.289Z,96534.84
2018-03-15T09:33:16.281Z,96533.86
2018-03-15T09:35:47.314Z,96525.68
2018-03-15T09:38:17.094Z,96525.21
2018-03-15T09:40:48.252Z,96519.13
2018-03-15T09:43:17.202Z,96514.35
2018-03-15T09:45:45.729Z,96507.60
2018-03-15T09:48:16.008Z,96511.61
2018-03-15T09:50:45.959Z,96504.44
2018-03-15T09:53:16.883Z,96502.24
2018-03-15T09:55:45.589Z,96504.22
2018-03-15T09:58:14.754Z,96498.34
2018-03-15T10:00:52.848Z,96493.66
2018-03-15T10:03:22.022Z,96489.52
2018-03-15T10:05:50.361Z,96487.72
2018-03-15T10:08:21.000Z,96487.66
2018-03-15T10:10:51.737Z,96496.61
2018-03-15T10:13:22.304Z,96499.80
2018-03-15T10:15:50.532Z,96496.30
2018-03-15T10:18:24.731Z,96497.27
2018-03-15T10:20:54.674Z,96496.53
2018-03-15T10:23:23.904Z,96495.55
2018-03-15T10:25:53.133Z,96487.41
2018-03-15T10:28:22.922Z,96490.14
2018-03-15T10:30:51.463Z,96484.59
2018-03-15T10:33:25.663Z,96488.70
2018-03-15T10:35:54.993Z,96481.73
2018-03-15T10:38:24.344Z,96482.28
2018-03-15T10:40:56.515Z,96480.44
2018-03-15T10:43:29.782Z,96482.02
2018-03-15T10:46:04.742Z,96479.19
2018-03-15T10:48:36.644Z,96480.23
2018-03-15T10:51:05.726Z,96490.77
2018-03-15T10:53:34.387Z,96483.73
2018-03-15T10:56:04.538Z,96480.44
2018-03-15T10:58:36.040Z,96477.59
2018-03-15T11:01:06.210Z,96470.34
2018-03-15T11:03:41.481Z,96460.39
2018-03-15T11:06:11.593Z,96456.55
2018-03-15T11:08:48.207Z,96459.80
2018-03-15T11:11:17.105Z,96457.31
2018-03-15T11:13:46.333Z,96457.99
2018-03-15T11:16:15.072Z,96449.61
2018-03-15T11:18:47.384Z,96448.08
2018-03-15T11:21:20.266Z,96443.20
2018-03-15T11:23:52.133Z,96440.30
2018-03-15T11:26:20.734Z,96439.91
2018-03-15T11:28:50.511Z,96436.56
2018-03-15T11:31:20.288Z,96430.25
2018-03-15T11:33:49.173Z,96425.39
2018-03-15T11:36:16.653Z,96420.10
2018-03-15T11:38:47.004Z,96414.89
2018-03-15T11:41:17.956Z,96418.33
2018-03-15T11:43:47.473Z,96411.09
2018-03-15T11:46:16.479Z,96410.92
2018-03-15T11:48:46.780Z,96407.59
2018-03-15T11:51:17.440Z,96406.35
2018-03-15T11:53:46.258Z,96399.58
2018-03-15T11:56:17.792Z,96390.27
2018-03-15T11:58:48.666Z,96392.16
2018-03-15T12:01:20.809Z,96388.28
2018-03-15T12:03:50.181Z,96382.95
2018-03-15T12:06:18.278Z,96373.86
2018-03-15T12:08:47.759Z,96376.14
2018-03-15T12:11:18.602Z,96366.78
2018-03-15T12:13:52.081Z,96370.89
2018-03-15T12:16:20.994Z,96378.02
2018-03-15T12:18:48.988Z,96375.27
2018-03-15T12:21:19.512Z,96375.46
2018-03-15T12:23:49.010Z,96372.69
2018-03-15T12:26:18.388Z,96380.35
2018-03-15T12:28:52.042Z,96382.75
2018-03-15T12:31:19.718Z,96373.44
2018-03-15T12:33:49.039Z,96376.75
2018-03-15T12:36:21.978Z,96375.17
2018-03-15T12:38:54.201Z,96368.31
2018-03-15T12:41:22.805Z,96366.91
2018-03-15T12:43:52.586Z,96365.11
2018-03-15T12:46:21.200Z,96358.25
2018-03-15T12:48:53.462Z,96358.27
2018-03-15T12:51:28.441Z,96357.64
2018-03-15T12:53:56.987Z,96350.50
2018-03-15T12:56:24.161Z,96343.97
2018-03-15T12:58:51.517Z,96345.19
2018-03-15T13:01:21.733Z,96342.91
2018-03-15T13:03:56.036Z,96340.99
2018-03-15T13:06:24.059Z,96336.69
2018-03-15T13:08:51.855Z,96335.74
2018-03-15T13:11:20.428Z,96325.06
2018-03-15T13:13:50.103Z,96315.60
2018-03-15T13:16:23.376Z,96310.63
2018-03-15T13:18:57.976Z,96309.81
2018-03-15T13:21:25.927Z,96312.09
2018-03-15T13:23:57.972Z,96309.13
2018-03-15T13:26:27.135Z,96313.94
2018-03-15T13:28:54.868Z,96307.61
2018-03-15T13:31:23.891Z,96305.05
2018-03-15T13:33:52.970Z,96298.15
2018-03-15T13:36:26.260Z,96296.16
2018-03-15T13:38:55.435Z,96296.10
2018-03-15T13:41:26.099Z,96297.30
2018-03-15T13:43:58.462Z,96291.48
2018-03-15T13:46:26.325Z,96288.27
2018-03-15T13:48:52.795Z,96282.66
2018-03-15T13:51:19.277Z,96280.73
2018-03-15T13:53:45.820Z,96284.32
2018-03-15T13:56:12.237Z,96275.39
2018-03-15T13:58:38.684Z,96276.80
2018-03-15T14:01:05.056Z,96272.72
2018-03-15T14:03:31.518Z,96276.00
2018-03-15T14:05:58.005Z,96274.92
2018-03-15T14:08:31.449Z,96267.20
2018-03-15T14:10:57.891Z,96257.67
2018-03-15T14:13:24.369Z,96254.09
2018-03-15T14:15:50.871Z,96255.42
2018-03-15T14:18:17.414Z,96256.25
2018-03-15T14:20:43.855Z,96255.64
2018-03-15T14:23:10.444Z,96255.23
2018-03-15T14:25:37.706Z,96258.00
2018-03-15T14:28:04.178Z,96254.58
2018-03-15T14:30:30.681Z,96246.91
2018-03-15T14:32:57.818Z,96249.14
2018-03-15T14:35:24.398Z,96229.56
2018-03-15T14:37:50.832Z,96224.08
2018-03-15T14:40:17.259Z,96230.19
2018-03-15T14:42:44.447Z,96227.72
2018-03-15T14:45:10.840Z,96233.59
2018-03-15T14:47:37.414Z,96232.26
2018-03-15T14:50:04.005Z,96224.69
2018-03-15T14:52:30.364Z,96220.78
2018-03-15T14:54:57.052Z,96221.94
2018-03-15T14:57:23.479Z,96217.88
2018-03-15T14:59:49.997Z,96210.72
2018-03-15T15:02:16.548Z,96203.98
2018-03-15T15:04:42.939Z,96204.44
2018-03-15T15:07:09.442Z,96197.80
2018-03-15T15:09:36.723Z,96200.30
2018-03-15T15:12:04.783Z,96201.61
2018-03-15T15:14:38.237Z,96200.48
2018-03-15T15:17:06.036Z,96201.44
2018-03-15T15:19:36.279Z,96200.38
2018-03-15T15:22:05.517Z,96196.27
2018-03-15T15:24:33.770Z,96199.08
2018-03-15T15:27:04.043Z,96193.28
2018-03-15T15:29:33.415Z,96188.09
2018-03-15T15:32:02.968Z,96190.02
2018-03-15T15:34:33.452Z,96188.80
2018-03-15T15:37:04.716Z,96182.53
2018-03-15T15:39:31.985Z,96185.80
2018-03-15T15:42:01.155Z,96186.41
2018-03-15T15:44:29.127Z,96188.51
2018-03-15T15:46:59.245Z,96181.50
2018-03-15T15:49:31.332Z,96187.52
2018-03-15T15:52:00.618Z,96182.72
2018-03-15T15:54:32.116Z,96187.12
2018-03-15T15:57:00.175Z,96189.42
2018-03-15T15:59:30.351Z,96187.27
2018-03-15T16:02:02.746Z,96187.97
2018-03-15T16:04:30.767Z,96186.52
2018-03-15T16:07:00.122Z,96185.23
2018-03-15T16:09:27.903Z,96184.05
2018-03-15T16:11:59.035Z,96182.92
2018-03-15T16:14:26.580Z,96179.59
2018-03-15T16:16:54.659Z,96180.77
2018-03-15T16:19:22.275Z,96182.63
2018-03-15T16:21:50.354Z,96184.20
2018-03-15T16:24:19.114Z,96181.83
2018-03-15T16:26:51.276Z,96185.51
2018-03-15T16:29:20.410Z,96185.97
2018-03-15T16:31:49.469Z,96188.86
2018-03-15T16:34:16.615Z,96187.56
2018-03-15T16:36:46.699Z,96182.62
2018-03-15T16:39:13.446Z,96183.62
2018-03-15T16:41:39.881Z,96179.84
2018-03-15T16:44:06.469Z,96182.66
2018-03-15T16:46:33.015Z,96190.17
2018-03-15T16:48:59.380Z,96194.72
2018-03-15T16:51:27.068Z,96199.28
2018-03-15T16:53:54.257Z,96200.83
2018-03-15T16:56:22.549Z,96201.37
2018-03-15T16:58:52.735Z,96199.65
2018-03-15T17:01:21.287Z,96205.47
2018-03-15T17:03:50.910Z,96204.61
2018-03-15T17:06:20.721Z,96215.20
2018-03-15T17:08:51.066Z,96215.62
2018-03-15T17:11:20.759Z,96218.45
2018-03-15T17:13:53.075Z,96211.83
2018-03-15T17:16:20.256Z,96217.02
2018-03-15T17:18:46.781Z,96214.94
2018-03-15T17:21:13.212Z,96217.00
2018-03-15T17:23:40.360Z,96221.14
2018-03-15T17:26:07.106Z,96216.14
2018-03-15T17:28:33.549Z,96220.43
2018-03-15T17:30:59.963Z,96215.77
2018-03-15T17:33:26.624Z,96212.63
2018-03-15T17:35:54.992Z,96214.44
2018-03-15T17:38:21.877Z,96210.17
2018-03-15T17:40:49.526Z,96205.49
2018-03-15T17:43:17.040Z,96218.50
2018-03-15T17:45:44.453Z,96216.26
2018-03-15T17:48:10.905Z,96214.27
2018-03-15T17:50:37.348Z,96213.28
2018-03-15T17:53:04.628Z,96206.17
2018-03-15T17:55:31.144Z,96210.33
2018-03-15T17:57:57.605Z,96205.89
2018-03-15T18:00:25.490Z,96209.34
2018-03-15T18:02:51.918Z,96207.27
2018-03-15T18:05:19.852Z,96203.17
2018-03-15T18:07:47.021Z,96207.25
2018-03-15T18:10:13.584Z,96206.41
2018-03-15T18:12:39.983Z,96199.59
2018-03-15T18:15:06.431Z,96205.89
2018-03-15T18:17:32.875Z,96199.29
2018-03-15T18:19:59.365Z,96200.27
2018-03-15T18:22:26.812Z,96204.39
2018-03-15T18:24:53.686Z,96197.52
2018-03-15T18:27:20.179Z,96210.78
2018-03-15T18:29:46.615Z,96213.48
2018-03-15T18:32:13.033Z,96217.25
2018-03-15T18:34:39.440Z,96219.22
2018-03-15T18:37:07.843Z,96212.91
2018-03-15T18:39:37.913Z,96217.03
2018-03-15T18:42:06.150Z,96223.23
2018-03-15T18:44:32.560Z,96219.45
2018-03-15T18:46:59.468Z,96221.19
2018-03-15T18:49:26.075Z,96222.23
2018-03-15T18:51:53.907Z,96219.80
2018-03-15T18:54:20.617Z,96222.16
2018-03-15T19:01:18.736Z,96220.04
2018-03-15T19:03:45.831Z,96224.00
2018-03-15T19:06:12.220Z,96216.88
2018-03-15T19:08:38.838Z,96210.42
2018-03-15T19:11:05.979Z,96205.59
2018-03-15T19:13:32.368Z,96202.97
2018-03-15T19:15:58.843Z,96205.02
2018-03-15T19:18:25.182Z,96204.62
2018-03-15T19:20:52.281Z,96210.82
2018-03-15T19:23:32.361Z,96213.91
2018-03-15T19:26:00.442Z,96210.43
2018-03-15T19:28:29.577Z,96204.25
2018-03-15T19:30:59.455Z,96208.80
2018-03-15T19:33:26.924Z,96213.40
2018-03-15T19:35:53.332Z,96211.38
2018-03-15T19:38:19.714Z,96211.03
2018-03-15T19:40:46.216Z,96212.73
2018-03-15T19:43:13.357Z,96215.20
2018-03-15T19:45:40.031Z,96218.41
2018-03-15T19:48:06.393Z,96211.02
2018-03-15T19:50:33.116Z,96216.15
2018-03-15T19:52:59.639Z,96215.63
2018-03-15T19:55:26.023Z,96212.34
2018-03-15T19:57:52.450Z,96212.92
2018-03-15T20:00:18.932Z,96217.02
2018-03-15T20:02:46.057Z,96220.33
2018-03-15T20:05:12.493Z,96215.85
2018-03-15T20:07:39.006Z,96224.62
2018-03-15T20:10:05.417Z,96226.80
2018-03-15T20:12:31.802Z,96225.14
2018-03-15T20:14:58.411Z,96229.42
2018-03-15T20:17:24.785Z,96234.22
2018-03-15T20:19:51.226Z,96232.44
2018-03-15T20:22:23.738Z,96236.59
2018-03-15T20:24:50.135Z,96235.46
2018-03-15T20:27:23.483Z,96234.02
2018-03-15T20:29:49.887Z,96238.06
2018-03-15T20:35:16.934Z,96239.50
2018-03-15T20:37:46.258Z,96240.85
2018-03-15T20:40:21.629Z,96237.78
2018-03-15T20:42:50.935Z,96240.80
2018-03-15T20:45:26.033Z,96243.21
2018-03-15T20:48:01.936Z,96242.47
2018-03-15T20:50:33.073Z,96235.98
2018-03-15T20:53:02.534Z,96239.36
2018-03-15T20:55:31.985Z,96242.11
2018-03-15T20:58:01.427Z,96242.69
2018-03-15T21:00:30.747Z,96236.99
2018-03-15T21:03:01.382Z,96231.25
2018-03-15T21:05:30.729Z,96236.01
2018-03-15T21:08:01.322Z,96230.30
2018-03-15T21:10:30.690Z,96231.22
2018-03-15T21:13:00.688Z,96235.23
2018-03-15T21:15:31.532Z,96236.22
2018-03-15T21:18:00.892Z,96231.40
2018-03-15T21:20:32.006Z,96235.97
2018-03-15T21:23:01.440Z,96237.23
2018-03-15T21:25:30.798Z,96238.52
2018-03-15T21:28:01.932Z,96240.52
2018-03-15T21:30:31.226Z,96231.92
2018-03-15T21:33:01.848Z,96237.59
2018-03-15T21:35:31.163Z,96234.58
2018-03-15T21:38:03.639Z,96236.03
2018-03-15T21:40:33.039Z,96238.98
2018-03-15T21:43:02.488Z,96235.57
2018-03-15T21:45:32.037Z,96237.67
2018-03-15T21:48:01.372Z,96235.05
2018-03-15T21:50:31.226Z,96233.80
2018-03-15T21:53:01.420Z,96230.68
2018-03-15T21:55:31.751Z,96232.11
2018-03-15T21:58:01.912Z,96225.25
2018-03-15T22:00:32.833Z,96227.19
2018-03-15T22:03:02.461Z,96223.58
2018-03-15T22:05:32.147Z,96219.93
2018-03-15T22:08:02.228Z,96227.72
2018-03-15T22:10:32.948Z,96217.17
2018-03-15T22:13:02.777Z,96218.67
2018-03-15T22:15:32.429Z,96220.33
2018-03-15T22:18:02.489Z,96224.28
2018-03-15T22:20:32.611Z,96219.53
2018-03-15T22:23:03.065Z,96220.78
2018-03-15T22:25:33.054Z,96218.94
2018-03-15T22:28:04.304Z,96222.28
2018-03-15T22:30:34.439Z,96214.64
2018-03-15T22:33:03.959Z,96215.64
2018-03-15T22:35:33.303Z,96208.20
2018-03-15T22:38:04.139Z,96211.37
2018-03-15T22:40:34.213Z,96202.84
2018-03-15T22:43:04.788Z,96205.81
2018-03-15T22:45:35.253Z,96201.49
2018-03-15T22:48:06.283Z,96207.58
2018-03-15T22:50:36.527Z,96198.95
2018-03-15T22:53:05.844Z,96202.73
2018-03-15T22:55:35.209Z,96196.00
2018-03-15T22:58:05.101Z,96201.12
2018-03-15T23:00:35.256Z,96196.73
2018-03-15T23:03:05.959Z,96194.80
2018-03-15T23:05:35.379Z,96188.34
2018-03-15T23:08:06.108Z,96189.20
2018-03-15T23:10:35.664Z,96187.36
2018-03-15T23:13:05.867Z,96184.33
2018-03-15T23:15:36.719Z,96181.44
2018-03-15T23:18:07.082Z,96183.14
2018-03-15T23:20:37.977Z,96183.08
2018-03-15T23:23:07.720Z,96181.08
2018-03-15T23:25:39.928Z,96189.12
2018-03-15T23:28:11.067Z,96187.22
2018-03-15T23:30:41.009Z,96187.44
2018-03-15T23:33:11.883Z,96186.78
2018-03-15T23:35:41.828Z,96184.78
2018-03-15T23:38:14.163Z,96179.27
2018-03-15T23:40:45.853Z,96182.30
2018-03-15T23:43:17.934Z,96182.21
2018-03-15T23:45:49.930Z,96180.81
2018-03-15T23:48:20.631Z,96180.99
2018-03-15T23:50:55.366Z,96181.61
2018-03-15T23:53:26.220Z,96174.31
2018-03-15T23:55:57.409Z,96170.72
2018-03-15T23:58:26.716Z,96176.86
